sensor_id;sensor_type;location;lat;lon;timestamp;P1;durP1;ratioP1;P2;durP2;ratioP2
16820;SDS011;8527;49.740;6.604;2023-03-01T00:00:18;17.92;;;8.40;;
16820;SDS011;8527;49.740;6.604;2023-03-01T00:05:18;27.42;;;8.68;;
16820;SDS011;8527;49.740;6.604;2023-03-01T00:10:26;21.45;;;9.18;;
16820;SDS011;8527;49.740;6.604;2023-03-01T00:15:31;23.35;;;8.38;;
16820;SDS011;8527;49.740;6.604;2023-03-01T00:20:31;18.15;;;8.70;;
16820;SDS011;8527;49.740;6.604;2023-03-01T00:25:30;23.25;;;9.27;;
16820;SDS011;8527;49.740;6.604;2023-03-01T03:03:53;21.90;;;9.35;;
16820;SDS011;8527;49.740;6.604;2023-03-01T03:08:52;20.77;;;10.02;;
16820;SDS011;8527;49.740;6.604;2023-03-01T03:13:51;24.00;;;10.82;;
16820;SDS011;8527;49.740;6.604;2023-03-01T03:18:49;23.23;;;10.07;;
16820;SDS011;8527;49.740;6.604;2023-03-01T03:23:51;24.25;;;11.70;;
16820;SDS011;8527;49.740;6.604;2023-03-01T03:28:52;24.73;;;11.43;;
16820;SDS011;8527;49.740;6.604;2023-03-01T03:33:50;30.85;;;12.35;;
16820;SDS011;8527;49.740;6.604;2023-03-01T03:38:51;24.30;;;11.57;;
16820;SDS011;8527;49.740;6.604;2023-03-01T03:43:50;27.25;;;13.00;;
16820;SDS011;8527;49.740;6.604;2023-03-01T03:48:48;23.08;;;11.23;;
16820;SDS011;8527;49.740;6.604;2023-03-01T03:53:52;25.60;;;11.10;;
16820;SDS011;8527;49.740;6.604;2023-03-01T03:58:50;25.85;;;10.60;;
16820;SDS011;8527;49.740;6.604;2023-03-01T04:03:49;21.65;;;10.10;;
16820;SDS011;8527;49.740;6.604;2023-03-01T04:08:52;19.88;;;10.05;;
16820;SDS011;8527;49.740;6.604;2023-03-01T04:13:56;23.05;;;11.57;;
16820;SDS011;8527;49.740;6.604;2023-03-01T04:18:55;25.42;;;11.82;;
16820;SDS011;8527;49.740;6.604;2023-03-01T04:23:57;30.20;;;12.85;;
16820;SDS011;8527;49.740;6.604;2023-03-01T04:28:57;33.97;;;13.50;;
16820;SDS011;8527;49.740;6.604;2023-03-01T04:33:57;33.90;;;13.52;;
16820;SDS011;8527;49.740;6.604;2023-03-01T04:38:58;30.40;;;12.68;;
16820;SDS011;8527;49.740;6.604;2023-03-01T04:44:07;32.03;;;13.23;;
16820;SDS011;8527;49.740;6.604;2023-03-01T04:49:06;28.40;;;12.73;;
16820;SDS011;8527;49.740;6.604;2023-03-01T04:54:07;30.25;;;12.80;;
16820;SDS011;8527;49.740;6.604;2023-03-01T04:59:05;28.88;;;12.90;;
16820;SDS011;8527;49.740;6.604;2023-03-01T05:04:05;32.35;;;13.23;;
16820;SDS011;8527;49.740;6.604;2023-03-01T05:09:11;41.88;;;13.63;;
16820;SDS011;8527;49.740;6.604;2023-03-01T05:14:10;24.77;;;12.27;;
16820;SDS011;8527;49.740;6.604;2023-03-01T05:19:09;33.47;;;14.43;;
16820;SDS011;8527;49.740;6.604;2023-03-01T05:24:12;30.33;;;15.15;;
16820;SDS011;8527;49.740;6.604;2023-03-01T05:29:11;28.75;;;12.38;;
16820;SDS011;8527;49.740;6.604;2023-03-01T05:34:09;33.13;;;13.93;;
16820;SDS011;8527;49.740;6.604;2023-03-01T05:39:08;49.35;;;13.80;;
16820;SDS011;8527;49.740;6.604;2023-03-01T05:44:09;27.08;;;11.45;;
16820;SDS011;8527;49.740;6.604;2023-03-01T05:49:07;28.13;;;12.88;;
16820;SDS011;8527;49.740;6.604;2023-03-01T05:54:06;32.05;;;13.80;;
16820;SDS011;8527;49.740;6.604;2023-03-01T05:59:05;42.85;;;16.00;;
16820;SDS011;8527;49.740;6.604;2023-03-01T06:04:06;27.27;;;11.57;;
16820;SDS011;8527;49.740;6.604;2023-03-01T06:09:07;26.85;;;13.15;;
16820;SDS011;8527;49.740;6.604;2023-03-01T06:14:07;27.73;;;11.65;;
16820;SDS011;8527;49.740;6.604;2023-03-01T06:19:10;35.10;;;14.93;;
16820;SDS011;8527;49.740;6.604;2023-03-01T06:24:09;32.58;;;14.00;;
16820;SDS011;8527;49.740;6.604;2023-03-01T06:29:10;29.60;;;13.15;;
16820;SDS011;8527;49.740;6.604;2023-03-01T06:34:12;35.25;;;13.57;;
16820;SDS011;8527;49.740;6.604;2023-03-01T06:39:10;27.80;;;12.38;;
16820;SDS011;8527;49.740;6.604;2023-03-01T06:44:09;39.17;;;14.80;;
16820;SDS011;8527;49.740;6.604;2023-03-01T06:49:12;29.20;;;13.98;;
16820;SDS011;8527;49.740;6.604;2023-03-01T06:54:12;32.92;;;14.48;;
16820;SDS011;8527;49.740;6.604;2023-03-01T06:59:12;34.80;;;14.77;;
16820;SDS011;8527;49.740;6.604;2023-03-01T07:04:13;37.05;;;15.50;;
16820;SDS011;8527;49.740;6.604;2023-03-01T07:09:14;35.45;;;14.68;;
16820;SDS011;8527;49.740;6.604;2023-03-01T07:14:17;34.47;;;15.68;;
16820;SDS011;8527;49.740;6.604;2023-03-01T07:19:17;36.38;;;15.52;;
16820;SDS011;8527;49.740;6.604;2023-03-01T07:24:16;36.90;;;15.13;;
16820;SDS011;8527;49.740;6.604;2023-03-01T07:29:17;33.65;;;14.45;;
16820;SDS011;8527;49.740;6.604;2023-03-01T07:34:21;33.10;;;14.85;;
16820;SDS011;8527;49.740;6.604;2023-03-01T07:39:19;34.88;;;14.13;;
16820;SDS011;8527;49.740;6.604;2023-03-01T07:44:18;30.48;;;13.75;;
16820;SDS011;8527;49.740;6.604;2023-03-01T07:49:16;24.40;;;13.70;;
16820;SDS011;8527;49.740;6.604;2023-03-01T07:54:18;32.75;;;14.95;;
16820;SDS011;8527;49.740;6.604;2023-03-01T07:59:19;39.25;;;15.93;;
16820;SDS011;8527;49.740;6.604;2023-03-01T08:04:24;30.92;;;13.98;;
16820;SDS011;8527;49.740;6.604;2023-03-01T08:09:28;31.75;;;14.15;;
16820;SDS011;8527;49.740;6.604;2023-03-01T08:14:26;42.20;;;16.70;;
16820;SDS011;8527;49.740;6.604;2023-03-01T08:19:24;30.40;;;13.70;;
16820;SDS011;8527;49.740;6.604;2023-03-01T08:24:23;37.97;;;16.73;;
16820;SDS011;8527;49.740;6.604;2023-03-01T08:29:29;32.50;;;14.48;;
16820;SDS011;8527;49.740;6.604;2023-03-01T08:34:29;42.63;;;17.42;;
16820;SDS011;8527;49.740;6.604;2023-03-01T08:39:27;35.03;;;14.65;;
16820;SDS011;8527;49.740;6.604;2023-03-01T08:44:26;38.20;;;16.55;;
16820;SDS011;8527;49.740;6.604;2023-03-01T08:49:32;34.53;;;17.73;;
16820;SDS011;8527;49.740;6.604;2023-03-01T08:54:32;32.83;;;15.30;;
16820;SDS011;8527;49.740;6.604;2023-03-01T08:59:33;36.80;;;13.68;;
16820;SDS011;8527;49.740;6.604;2023-03-01T09:04:35;32.67;;;14.20;;
16820;SDS011;8527;49.740;6.604;2023-03-01T09:09:33;40.45;;;16.90;;
16820;SDS011;8527;49.740;6.604;2023-03-01T09:14:35;32.60;;;15.48;;
16820;SDS011;8527;49.740;6.604;2023-03-01T09:19:33;39.55;;;17.35;;
16820;SDS011;8527;49.740;6.604;2023-03-01T09:24:37;39.15;;;15.48;;
16820;SDS011;8527;49.740;6.604;2023-03-01T09:29:40;34.25;;;14.02;;
16820;SDS011;8527;49.740;6.604;2023-03-01T09:34:38;38.25;;;15.55;;
16820;SDS011;8527;49.740;6.604;2023-03-01T09:39:49;40.60;;;17.15;;
16820;SDS011;8527;49.740;6.604;2023-03-01T09:44:51;31.45;;;13.50;;
16820;SDS011;8527;49.740;6.604;2023-03-01T09:49:58;31.50;;;13.98;;
16820;SDS011;8527;49.740;6.604;2023-03-01T09:55:04;35.08;;;16.98;;
16820;SDS011;8527;49.740;6.604;2023-03-01T10:00:15;35.50;;;15.82;;
16820;SDS011;8527;49.740;6.604;2023-03-01T10:05:25;29.85;;;13.07;;
16820;SDS011;8527;49.740;6.604;2023-03-01T10:10:38;41.97;;;19.40;;
16820;SDS011;8527;49.740;6.604;2023-03-01T10:15:44;37.45;;;15.13;;
16820;SDS011;8527;49.740;6.604;2023-03-01T10:20:51;44.67;;;17.75;;
16820;SDS011;8527;49.740;6.604;2023-03-01T10:25:55;42.25;;;20.27;;
16820;SDS011;8527;49.740;6.604;2023-03-01T10:31:07;38.97;;;15.30;;
16820;SDS011;8527;49.740;6.604;2023-03-01T10:36:11;47.93;;;17.90;;
16820;SDS011;8527;49.740;6.604;2023-03-01T10:41:10;45.63;;;17.38;;
16820;SDS011;8527;49.740;6.604;2023-03-01T10:46:19;44.20;;;17.02;;
16820;SDS011;8527;49.740;6.604;2023-03-01T10:51:23;40.38;;;17.67;;
16820;SDS011;8527;49.740;6.604;2023-03-01T10:56:22;52.05;;;20.02;;
16820;SDS011;8527;49.740;6.604;2023-03-01T11:01:31;46.72;;;18.88;;
16820;SDS011;8527;49.740;6.604;2023-03-01T11:06:31;38.42;;;16.65;;
16820;SDS011;8527;49.740;6.604;2023-03-01T11:11:32;46.67;;;18.73;;
16820;SDS011;8527;49.740;6.604;2023-03-01T11:16:39;47.78;;;18.90;;
16820;SDS011;8527;49.740;6.604;2023-03-01T11:21:42;51.55;;;22.27;;
16820;SDS011;8527;49.740;6.604;2023-03-01T11:26:59;57.63;;;22.02;;
16820;SDS011;8527;49.740;6.604;2023-03-01T11:32:04;46.72;;;19.73;;
16820;SDS011;8527;49.740;6.604;2023-03-01T11:37:12;53.95;;;19.55;;
16820;SDS011;8527;49.740;6.604;2023-03-01T11:42:21;58.30;;;20.45;;
16820;SDS011;8527;49.740;6.604;2023-03-01T11:47:51;51.53;;;21.80;;
16820;SDS011;8527;49.740;6.604;2023-03-01T11:58:12;37.03;;;17.08;;
16820;SDS011;8527;49.740;6.604;2023-03-01T12:03:28;48.95;;;18.88;;
16820;SDS011;8527;49.740;6.604;2023-03-01T12:08:33;46.88;;;18.05;;
16820;SDS011;8527;49.740;6.604;2023-03-01T12:13:43;36.50;;;16.30;;
16820;SDS011;8527;49.740;6.604;2023-03-01T12:19:05;49.03;;;18.65;;
16820;SDS011;8527;49.740;6.604;2023-03-01T12:24:21;39.75;;;16.45;;
16820;SDS011;8527;49.740;6.604;2023-03-01T12:29:40;38.20;;;17.15;;
16820;SDS011;8527;49.740;6.604;2023-03-01T12:34:53;41.53;;;18.83;;
16820;SDS011;8527;49.740;6.604;2023-03-01T12:40:26;45.42;;;19.23;;
16820;SDS011;8527;49.740;6.604;2023-03-01T12:45:44;40.23;;;17.23;;
16820;SDS011;8527;49.740;6.604;2023-03-01T12:50:59;43.45;;;18.42;;
16820;SDS011;8527;49.740;6.604;2023-03-01T12:56:04;38.80;;;17.15;;
16820;SDS011;8527;49.740;6.604;2023-03-01T13:01:18;37.92;;;18.85;;
16820;SDS011;8527;49.740;6.604;2023-03-01T13:06:29;31.88;;;15.05;;
16820;SDS011;8527;49.740;6.604;2023-03-01T13:11:35;41.17;;;17.92;;
16820;SDS011;8527;49.740;6.604;2023-03-01T13:16:41;40.45;;;15.70;;
16820;SDS011;8527;49.740;6.604;2023-03-01T13:21:47;35.80;;;16.48;;
16820;SDS011;8527;49.740;6.604;2023-03-01T13:32:24;36.55;;;15.40;;
16820;SDS011;8527;49.740;6.604;2023-03-01T13:37:30;48.27;;;19.37;;
16820;SDS011;8527;49.740;6.604;2023-03-01T13:42:41;41.50;;;18.38;;
16820;SDS011;8527;49.740;6.604;2023-03-01T13:47:45;29.67;;;12.90;;
16820;SDS011;8527;49.740;6.604;2023-03-01T13:52:50;34.72;;;15.55;;
16820;SDS011;8527;49.740;6.604;2023-03-01T13:57:54;31.58;;;15.85;;
16820;SDS011;8527;49.740;6.604;2023-03-01T14:03:13;33.88;;;15.73;;
16820;SDS011;8527;49.740;6.604;2023-03-01T14:08:21;30.25;;;14.50;;
16820;SDS011;8527;49.740;6.604;2023-03-01T14:13:27;54.35;;;18.40;;
16820;SDS011;8527;49.740;6.604;2023-03-01T14:18:42;35.63;;;13.98;;
16820;SDS011;8527;49.740;6.604;2023-03-01T14:23:52;26.48;;;14.38;;
16820;SDS011;8527;49.740;6.604;2023-03-01T14:28:54;31.73;;;14.25;;
16820;SDS011;8527;49.740;6.604;2023-03-01T14:33:55;29.23;;;14.02;;
16820;SDS011;8527;49.740;6.604;2023-03-01T14:38:59;28.33;;;13.88;;
16820;SDS011;8527;49.740;6.604;2023-03-01T14:44:15;29.55;;;14.27;;
16820;SDS011;8527;49.740;6.604;2023-03-01T14:49:20;29.10;;;14.27;;
16820;SDS011;8527;49.740;6.604;2023-03-01T14:54:32;31.02;;;14.35;;
16820;SDS011;8527;49.740;6.604;2023-03-01T14:59:37;27.65;;;13.85;;
16820;SDS011;8527;49.740;6.604;2023-03-01T15:04:35;26.33;;;12.98;;
16820;SDS011;8527;49.740;6.604;2023-03-01T15:09:39;23.90;;;11.23;;
16820;SDS011;8527;49.740;6.604;2023-03-01T15:14:39;34.03;;;13.90;;
16820;SDS011;8527;49.740;6.604;2023-03-01T15:19:41;31.30;;;15.88;;
16820;SDS011;8527;49.740;6.604;2023-03-01T15:24:48;26.42;;;12.50;;
16820;SDS011;8527;49.740;6.604;2023-03-01T15:29:54;22.65;;;11.68;;
16820;SDS011;8527;49.740;6.604;2023-03-01T15:35:00;29.67;;;12.88;;
16820;SDS011;8527;49.740;6.604;2023-03-01T15:40:22;23.63;;;11.55;;
16820;SDS011;8527;49.740;6.604;2023-03-01T15:45:27;27.50;;;11.98;;
16820;SDS011;8527;49.740;6.604;2023-03-01T15:50:32;21.65;;;11.07;;
16820;SDS011;8527;49.740;6.604;2023-03-01T15:55:40;22.27;;;9.68;;
16820;SDS011;8527;49.740;6.604;2023-03-01T16:00:47;19.35;;;9.70;;
16820;SDS011;8527;49.740;6.604;2023-03-01T16:05:50;19.90;;;8.75;;
16820;SDS011;8527;49.740;6.604;2023-03-01T16:10:54;22.52;;;11.27;;
16820;SDS011;8527;49.740;6.604;2023-03-01T16:15:56;16.42;;;7.97;;
16820;SDS011;8527;49.740;6.604;2023-03-01T16:21:00;15.55;;;8.95;;
16820;SDS011;8527;49.740;6.604;2023-03-01T16:26:06;27.02;;;8.60;;
16820;SDS011;8527;49.740;6.604;2023-03-01T16:31:04;17.02;;;8.05;;
16820;SDS011;8527;49.740;6.604;2023-03-01T16:36:06;18.60;;;8.93;;
16820;SDS011;8527;49.740;6.604;2023-03-01T16:41:08;19.30;;;8.07;;
16820;SDS011;8527;49.740;6.604;2023-03-01T16:46:12;14.23;;;7.63;;
16820;SDS011;8527;49.740;6.604;2023-03-01T16:51:15;17.67;;;7.53;;
16820;SDS011;8527;49.740;6.604;2023-03-01T16:56:16;19.58;;;8.02;;
16820;SDS011;8527;49.740;6.604;2023-03-01T17:01:16;13.93;;;6.68;;
16820;SDS011;8527;49.740;6.604;2023-03-01T17:06:19;19.67;;;8.13;;
16820;SDS011;8527;49.740;6.604;2023-03-01T17:11:22;15.93;;;8.52;;
16820;SDS011;8527;49.740;6.604;2023-03-01T17:16:20;20.90;;;8.90;;
16820;SDS011;8527;49.740;6.604;2023-03-01T17:21:21;22.20;;;9.48;;
16820;SDS011;8527;49.740;6.604;2023-03-01T17:26:22;16.73;;;8.85;;
16820;SDS011;8527;49.740;6.604;2023-03-01T17:31:24;18.30;;;9.90;;
16820;SDS011;8527;49.740;6.604;2023-03-01T17:36:25;19.70;;;9.02;;
16820;SDS011;8527;49.740;6.604;2023-03-01T17:41:31;17.73;;;8.77;;
16820;SDS011;8527;49.740;6.604;2023-03-01T17:46:32;18.50;;;9.02;;
16820;SDS011;8527;49.740;6.604;2023-03-01T17:51:33;29.70;;;12.88;;
16820;SDS011;8527;49.740;6.604;2023-03-01T17:56:36;48.22;;;19.52;;
16820;SDS011;8527;49.740;6.604;2023-03-01T18:01:36;25.92;;;13.05;;
16820;SDS011;8527;49.740;6.604;2023-03-01T18:06:37;29.58;;;14.63;;
16820;SDS011;8527;49.740;6.604;2023-03-01T18:11:40;23.52;;;12.13;;
16820;SDS011;8527;49.740;6.604;2023-03-01T18:16:38;35.78;;;15.65;;
16820;SDS011;8527;49.740;6.604;2023-03-01T18:21:37;25.17;;;10.18;;
16820;SDS011;8527;49.740;6.604;2023-03-01T18:26:41;21.52;;;9.27;;
16820;SDS011;8527;49.740;6.604;2023-03-01T18:31:42;18.98;;;8.52;;
16820;SDS011;8527;49.740;6.604;2023-03-01T18:36:40;17.15;;;8.32;;
16820;SDS011;8527;49.740;6.604;2023-03-01T18:41:45;17.13;;;8.27;;
16820;SDS011;8527;49.740;6.604;2023-03-01T18:46:45;22.05;;;10.30;;
16820;SDS011;8527;49.740;6.604;2023-03-01T18:51:47;20.20;;;9.02;;
16820;SDS011;8527;49.740;6.604;2023-03-01T18:56:51;16.83;;;8.13;;
16820;SDS011;8527;49.740;6.604;2023-03-01T19:01:49;20.40;;;8.32;;
16820;SDS011;8527;49.740;6.604;2023-03-01T19:06:56;21.05;;;10.38;;
16820;SDS011;8527;49.740;6.604;2023-03-01T19:11:58;25.15;;;12.80;;
16820;SDS011;8527;49.740;6.604;2023-03-01T19:17:00;20.27;;;8.60;;
16820;SDS011;8527;49.740;6.604;2023-03-01T19:21:59;19.55;;;10.38;;
16820;SDS011;8527;49.740;6.604;2023-03-01T19:27:04;21.33;;;9.07;;
16820;SDS011;8527;49.740;6.604;2023-03-01T19:32:05;20.83;;;9.52;;
16820;SDS011;8527;49.740;6.604;2023-03-01T19:37:06;19.25;;;8.43;;
16820;SDS011;8527;49.740;6.604;2023-03-01T19:42:09;15.98;;;7.75;;
16820;SDS011;8527;49.740;6.604;2023-03-01T19:47:08;24.02;;;9.77;;
16820;SDS011;8527;49.740;6.604;2023-03-01T19:52:07;19.98;;;8.65;;
16820;SDS011;8527;49.740;6.604;2023-03-01T19:57:08;27.95;;;11.18;;
16820;SDS011;8527;49.740;6.604;2023-03-01T20:02:09;28.02;;;12.73;;
16820;SDS011;8527;49.740;6.604;2023-03-01T20:07:08;25.75;;;11.88;;
16820;SDS011;8527;49.740;6.604;2023-03-01T20:12:12;27.98;;;11.60;;
16820;SDS011;8527;49.740;6.604;2023-03-01T20:17:10;21.25;;;10.63;;
16820;SDS011;8527;49.740;6.604;2023-03-01T20:22:09;26.83;;;11.48;;
16820;SDS011;8527;49.740;6.604;2023-03-01T20:27:09;27.98;;;12.40;;
16820;SDS011;8527;49.740;6.604;2023-03-01T20:32:10;23.67;;;9.95;;
16820;SDS011;8527;49.740;6.604;2023-03-01T20:37:08;22.40;;;10.00;;
16820;SDS011;8527;49.740;6.604;2023-03-01T20:42:07;24.05;;;10.65;;
16820;SDS011;8527;49.740;6.604;2023-03-01T20:47:08;18.33;;;9.55;;
16820;SDS011;8527;49.740;6.604;2023-03-01T20:52:07;19.58;;;8.43;;
16820;SDS011;8527;49.740;6.604;2023-03-01T20:57:05;20.52;;;8.45;;
16820;SDS011;8527;49.740;6.604;2023-03-01T21:02:04;20.42;;;8.88;;
16820;SDS011;8527;49.740;6.604;2023-03-01T21:07:05;23.02;;;8.73;;
16820;SDS011;8527;49.740;6.604;2023-03-01T21:12:03;19.05;;;8.35;;
16820;SDS011;8527;49.740;6.604;2023-03-01T21:17:02;17.83;;;8.63;;
16820;SDS011;8527;49.740;6.604;2023-03-01T21:22:00;20.95;;;8.55;;
16820;SDS011;8527;49.740;6.604;2023-03-01T21:27:01;14.35;;;7.68;;
16820;SDS011;8527;49.740;6.604;2023-03-01T21:32:04;19.88;;;9.27;;
16820;SDS011;8527;49.740;6.604;2023-03-01T21:37:06;20.75;;;7.97;;
16820;SDS011;8527;49.740;6.604;2023-03-01T21:42:13;19.05;;;8.55;;
16820;SDS011;8527;49.740;6.604;2023-03-01T21:47:12;24.75;;;8.32;;
16820;SDS011;8527;49.740;6.604;2023-03-01T21:52:10;18.50;;;8.23;;
16820;SDS011;8527;49.740;6.604;2023-03-01T21:57:13;23.38;;;9.38;;
16820;SDS011;8527;49.740;6.604;2023-03-01T22:02:14;25.58;;;9.25;;
16820;SDS011;8527;49.740;6.604;2023-03-01T22:07:13;35.33;;;15.57;;
16820;SDS011;8527;49.740;6.604;2023-03-01T22:12:13;18.05;;;8.35;;
16820;SDS011;8527;49.740;6.604;2023-03-01T22:17:12;21.67;;;8.73;;
16820;SDS011;8527;49.740;6.604;2023-03-01T22:22:10;17.13;;;8.23;;
16820;SDS011;8527;49.740;6.604;2023-03-01T22:27:14;16.08;;;7.78;;
16820;SDS011;8527;49.740;6.604;2023-03-01T22:32:22;23.45;;;8.85;;
16820;SDS011;8527;49.740;6.604;2023-03-01T22:37:20;19.02;;;8.30;;
16820;SDS011;8527;49.740;6.604;2023-03-01T22:42:21;22.20;;;9.50;;
16820;SDS011;8527;49.740;6.604;2023-03-01T22:47:23;23.05;;;9.13;;
16820;SDS011;8527;49.740;6.604;2023-03-01T22:52:30;23.13;;;9.38;;
16820;SDS011;8527;49.740;6.604;2023-03-01T22:57:37;19.95;;;9.20;;
16820;SDS011;8527;49.740;6.604;2023-03-01T23:02:35;25.88;;;10.88;;
16820;SDS011;8527;49.740;6.604;2023-03-01T23:07:35;20.45;;;9.38;;
16820;SDS011;8527;49.740;6.604;2023-03-01T23:12:36;21.92;;;8.82;;
16820;SDS011;8527;49.740;6.604;2023-03-01T23:17:35;19.40;;;8.35;;
16820;SDS011;8527;49.740;6.604;2023-03-01T23:22:33;28.67;;;8.90;;
16820;SDS011;8527;49.740;6.604;2023-03-01T23:27:37;20.55;;;9.40;;
16820;SDS011;8527;49.740;6.604;2023-03-01T23:32:38;25.33;;;10.10;;
16820;SDS011;8527;49.740;6.604;2023-03-01T23:37:39;21.42;;;8.65;;
16820;SDS011;8527;49.740;6.604;2023-03-01T23:42:41;22.95;;;9.40;;
16820;SDS011;8527;49.740;6.604;2023-03-01T23:47:40;24.75;;;9.10;;
16820;SDS011;8527;49.740;6.604;2023-03-01T23:52:38;23.30;;;9.10;;
16820;SDS011;8527;49.740;6.604;2023-03-01T23:57:38;21.10;;;9.82;;
